Latest Weather Forecast - Friday 3rd March 2023(6 pm)

Forecast Period: 

6:00 pm 3rd March, 2023 to 6:00 am 4th  March, 2023

Synopsis:
A ridge pattern is the dominant feature
Forecast:
Fair to partly cloudy, slightly hazy and breezy at first becoming occasionally cloudy with isolated showers towards the morning period

Weather Advisory/Warning:

None

Winds:

ENE - E at 20 to 35 km/h (12 - 22 mph)
Sea Conditions:
Slight to moderate in open water with swells from 1.2 m to 2.5 m 

Marine
Advisory:

Small craft operators and sea bathers should exercise caution for above normal sea swells especially on eastern coasts

Upcoming Tides:
High: 02:57 am 05:21 pm
Low: 07:06 pm (3rd) 11:53 am

Aviation WX

[Source: ADDS]
METAR
TVSA 280500Z 2806/2906 06010KT 9999 SCT018 PROB30 TEMPO 2814/2818 5000 SHRA BKN014 TAF
TVSA 280500Z 2806/2906 06010KT 9999 SCT018 PROB30 TEMPO 2814/2818 5000 SHRA BKN014 =
SR / SS: 09:36 / 22:26 UTC (Sunrise Sunset 2023-05-28)